Time;durP1;ratioP1;P1;durP2;ratioP2;P2;SDS_P1;SDS_P2;PMS_P1;PMS_P2;Temp;Humidity;BMP_temperature;BMP_pressure;BME280_temperature;BME280_humidity;BME280_pressure;Samples;Min_cycle;Max_cycle;Signal;HPM_P1;HPM_P2
2021/11/18 00:01:53;;;;;;;;;;;;;;;5.88;83.44;98824.55;1742192;82;20825;-94
2021/11/18 00:04:20;;;;;;;;;;;;;;;5.88;83.42;98830.59;1742065;82;25754;-93
2021/11/18 00:06:48;;;;;;;;;;;;;;;5.88;83.41;98828.45;1741757;82;22036;-94
2021/11/18 00:09:16;;;;;;;;;;;;;;;5.88;83.43;98824.55;1731656;82;26141;-95
2021/11/18 00:11:42;;;;;;;;;;;;;;;5.87;83.43;98832.80;1741540;82;24448;-95
2021/11/18 00:14:08;;;;;;;;;;;;;;;5.87;83.43;98831.50;1741967;82;20306;-96
2021/11/18 00:16:34;;;;;;;;;;;;;;;5.86;83.45;98826.33;1741977;82;24947;-94
2021/11/18 00:19:00;;;;;;;;;;;;;;;5.83;83.44;98827.78;1741711;82;21974;-95
2021/11/18 00:21:30;;;;;;;;;;;;;;;5.82;83.42;98824.34;1768630;81;20831;-95
2021/11/18 00:23:58;;;;;;;;;;;;;;;5.82;83.44;98819.14;1769489;81;25169;-95
2021/11/18 00:26:25;;;;;;;;;;;;;;;5.84;83.47;98822.95;1768936;81;20463;-94
2021/11/18 00:28:51;;;;;;;;;;;;;;;5.84;83.47;98821.20;1769018;81;25006;-94
2021/11/18 00:31:19;;;;;;;;;;;;;;;5.83;83.49;98831.23;1769320;81;21960;-95
2021/11/18 00:33:45;;;;;;;;;;;;;;;5.82;83.50;98830.83;1767707;81;26082;-95
2021/11/18 00:36:13;;;;;;;;;;;;;;;5.82;83.52;98831.28;1769218;81;24377;-95
2021/11/18 00:38:39;;;;;;;;;;;;;;;5.82;83.53;98834.73;1759432;81;20151;-94
2021/11/18 00:41:05;;;;;;;;;;;;;;;5.83;83.52;98831.68;1742009;82;25010;-95
2021/11/18 00:43:32;;;;;;;;;;;;;;;5.80;83.54;98831.80;1711150;81;22027;-95
2021/11/18 00:45:58;;;;;;;;;;;;;;;5.83;83.57;98835.13;1708996;84;26194;-95
2021/11/18 00:48:24;;;;;;;;;;;;;;;5.84;83.55;98838.53;1709154;83;24597;-94
2021/11/18 00:50:55;;;;;;;;;;;;;;;5.83;83.57;98834.27;1709014;84;20300;-93
2021/11/18 00:53:21;;;;;;;;;;;;;;;5.82;83.57;98833.43;1708331;83;24972;-93
2021/11/18 00:55:47;;;;;;;;;;;;;;;5.84;83.55;98830.74;1709087;84;21946;-95
2021/11/18 00:58:14;;;;;;;;;;;;;;;5.86;83.59;98823.73;1708859;84;25961;-93
2021/11/18 01:00:41;;;;;;;;;;;;;;;5.86;83.62;98837.56;1717929;83;24520;-95
2021/11/18 01:03:08;;;;;;;;;;;;;;;5.87;83.63;98838.45;1714208;83;20186;-95
2021/11/18 01:05:36;;;;;;;;;;;;;;;5.86;83.61;98841.47;1708891;84;25146;-94
2021/11/18 01:08:02;;;;;;;;;;;;;;;5.85;83.60;98838.92;1709303;84;22666;-95
2021/11/18 01:13:51;;;;;;;;;;;;;;;5.84;83.60;98838.53;1709284;84;22423;-93
2021/11/18 01:16:19;;;;;;;;;;;;;;;5.84;83.57;98832.04;1709244;83;20480;-95
2021/11/18 01:18:46;;;;;;;;;;;;;;;5.84;83.57;98825.09;1709321;84;25130;-94
2021/11/18 01:21:12;;;;;;;;;;;;;;;5.86;83.56;98836.72;1709204;84;22057;-92
2021/11/18 01:23:39;;;;;;;;;;;;;;;5.87;83.57;98844.94;1709272;84;26143;-95
2021/11/18 01:26:06;;;;;;;;;;;;;;;5.87;83.57;98854.03;1708948;84;25295;-94
2021/11/18 01:28:32;;;;;;;;;;;;;;;5.88;83.57;98855.27;1709015;84;20246;-95
2021/11/18 01:30:59;;;;;;;;;;;;;;;5.88;83.58;98860.47;1709123;84;25044;-94
2021/11/18 01:33:26;;;;;;;;;;;;;;;5.88;83.56;98861.77;1709333;84;22071;-93
2021/11/18 01:35:53;;;;;;;;;;;;;;;5.91;83.57;98856.02;1709111;84;26141;-95
2021/11/18 01:38:19;;;;;;;;;;;;;;;5.93;83.56;98852.92;1709075;84;24603;-95
2021/11/18 01:40:53;;;;;;;;;;;;;;;5.94;83.59;98854.16;1709286;84;20230;-95
2021/11/18 01:43:21;;;;;;;;;;;;;;;5.94;83.56;98863.70;1738916;80;25779;-94
2021/11/18 01:45:47;;;;;;;;;;;;;;;5.93;83.54;98858.11;1780580;80;21990;-93
2021/11/18 01:48:14;;;;;;;;;;;;;;;5.93;83.54;98858.11;1780412;80;25953;-94
2021/11/18 01:50:41;;;;;;;;;;;;;;;5.89;83.54;98853.03;1780898;80;24441;-95
2021/11/18 01:53:12;;;;;;;;;;;;;;;5.92;83.50;98852.07;1780813;80;20460;-95
2021/11/18 01:55:39;;;;;;;;;;;;;;;5.92;83.51;98859.86;1779074;80;25093;-96
2021/11/18 01:58:05;;;;;;;;;;;;;;;5.91;83.50;98858.63;1780464;80;21946;-94
2021/11/18 02:00:33;;;;;;;;;;;;;;;5.92;83.48;98862.46;1780721;80;25934;-95
2021/11/18 02:02:59;;;;;;;;;;;;;;;5.92;83.49;98868.95;1761833;80;24494;-93
2021/11/18 02:05:27;;;;;;;;;;;;;;;5.91;83.47;98868.56;1735896;82;20177;-94
2021/11/18 02:07:53;;;;;;;;;;;;;;;5.90;83.46;98862.97;1735655;82;25000;-95
2021/11/18 02:10:21;;;;;;;;;;;;;;;5.87;83.44;98863.13;1736111;82;21981;-95
2021/11/18 02:12:47;;;;;;;;;;;;;;;5.87;83.43;98855.33;1735610;82;26047;-95
2021/11/18 02:15:21;;;;;;;;;;;;;;;5.85;83.45;98856.66;1737621;81;24752;-94
2021/11/18 02:17:47;;;;;;;;;;;;;;;5.87;83.46;98861.82;1734945;82;20180;-96
2021/11/18 02:20:18;;;;;;;;;;;;;;;5.86;83.44;98853.16;1735970;82;25049;-93
2021/11/18 02:22:44;;;;;;;;;;;;;;;5.85;83.46;98854.06;1735784;82;21770;-94
2021/11/18 02:25:12;;;;;;;;;;;;;;;5.84;83.46;98851.06;1736103;82;20962;-94
2021/11/18 02:27:38;;;;;;;;;;;;;;;5.81;83.44;98856.41;1735666;82;25101;-95
2021/11/18 02:30:05;;;;;;;;;;;;;;;5.80;83.42;98859.91;1735945;82;20466;-93
2021/11/18 02:32:33;;;;;;;;;;;;;;;5.80;83.43;98862.51;1735993;82;25150;-93
2021/11/18 02:35:03;;;;;;;;;;;;;;;5.77;83.42;98866.55;1736129;82;21959;-94
2021/11/18 02:37:30;;;;;;;;;;;;;;;5.77;83.42;98870.45;1761638;79;25968;-94
2021/11/18 02:39:55;;;;;;;;;;;;;;;5.77;83.43;98879.98;1736109;82;24416;-94
2021/11/18 02:42:22;;;;;;;;;;;;;;;5.78;83.44;98886.88;1730767;82;20273;-95
2021/11/18 02:44:49;;;;;;;;;;;;;;;5.78;83.45;98885.58;1731783;81;25033;-95
2021/11/18 02:47:15;;;;;;;;;;;;;;;5.77;83.47;98882.59;1769374;81;21942;-92
2021/11/18 02:49:43;;;;;;;;;;;;;;;5.76;83.50;98877.84;1769825;81;25972;-94
2021/11/18 02:52:11;;;;;;;;;;;;;;;5.75;83.52;98881.34;1767757;81;21402;-94
2021/11/18 02:54:38;;;;;;;;;;;;;;;5.74;83.54;98885.30;1769825;81;20162;-94
2021/11/18 02:57:04;;;;;;;;;;;;;;;5.72;83.56;98883.23;1769528;81;24934;-95
2021/11/18 02:59:30;;;;;;;;;;;;;;;5.70;83.59;98885.05;1769458;80;22298;-95
2021/11/18 03:01:56;;;;;;;;;;;;;;;5.70;83.61;98886.34;1769115;81;25965;-95
2021/11/18 03:04:22;;;;;;;;;;;;;;;5.70;83.67;98891.54;1722017;81;20259;-92
2021/11/18 03:06:48;;;;;;;;;;;;;;;5.69;83.70;98892.44;1706726;84;20366;-94
2021/11/18 03:09:15;;;;;;;;;;;;;;;5.68;83.73;98894.19;1712971;83;25002;-95
2021/11/18 03:11:41;;;;;;;;;;;;;;;5.69;83.77;98897.63;1717188;82;22201;-94
2021/11/18 03:14:07;;;;;;;;;;;;;;;5.68;83.83;98893.34;1717654;83;20915;-95
2021/11/18 03:16:33;;;;;;;;;;;;;;;5.68;83.86;98901.13;1717270;83;24408;-96
2021/11/18 03:18:59;;;;;;;;;;;;;;;5.68;83.90;98899.38;1717067;83;20260;-94
2021/11/18 03:21:27;;;;;;;;;;;;;;;5.69;83.97;98910.16;1717117;83;24943;-94
2021/11/18 03:27:15;;;;;;;;;;;;;;;5.69;84.04;98902.83;1725595;83;22088;-95
2021/11/18 03:29:41;;;;;;;;;;;;;;;5.68;84.12;98901.98;1718673;83;24474;-95
2021/11/18 03:32:07;;;;;;;;;;;;;;;5.70;84.17;98912.31;1717528;83;20779;-95
2021/11/18 03:34:34;;;;;;;;;;;;;;;5.69;84.22;98915.36;1717240;83;24938;-94
2021/11/18 03:37:00;;;;;;;;;;;;;;;5.71;84.26;98919.20;1717549;83;22001;-95
2021/11/18 03:39:27;;;;;;;;;;;;;;;5.71;84.33;98919.20;1717386;83;25929;-94
2021/11/18 03:41:54;;;;;;;;;;;;;;;5.71;84.38;98921.34;1717600;83;24415;-96
2021/11/18 03:44:23;;;;;;;;;;;;;;;5.70;84.42;98924.84;1714925;82;20221;-95
2021/11/18 03:46:50;;;;;;;;;;;;;;;5.66;84.46;98919.40;1711029;83;25040;-95
2021/11/18 03:49:17;;;;;;;;;;;;;;;5.68;84.50;98920.61;1704771;84;21792;-95
2021/11/18 03:51:46;;;;;;;;;;;;;;;5.68;84.56;98921.45;1704783;84;25836;-95
2021/11/18 03:54:13;;;;;;;;;;;;;;;5.68;84.59;98929.24;1704847;84;24509;-92
2021/11/18 03:56:40;;;;;;;;;;;;;;;5.66;84.67;98918.09;1705007;84;20202;-95
2021/11/18 03:59:14;;;;;;;;;;;;;;;5.65;84.72;98925.95;1730835;82;24955;-93
2021/11/18 04:01:41;;;;;;;;;;;;;;;5.67;84.76;98919.80;1704859;84;21996;-96
2021/11/18 04:04:08;;;;;;;;;;;;;;;5.67;84.84;98924.98;1705261;84;26195;-95
2021/11/18 04:06:34;;;;;;;;;;;;;;;5.69;84.90;98923.59;1704938;84;24601;-95
2021/11/18 04:09:01;;;;;;;;;;;;;;;5.68;84.96;98924.50;1704441;84;20300;-95
2021/11/18 04:11:27;;;;;;;;;;;;;;;5.67;85.02;98924.14;1704613;84;25005;-95
2021/11/18 04:13:53;;;;;;;;;;;;;;;5.67;85.09;98917.20;1704415;84;22130;-96
2021/11/18 04:16:19;;;;;;;;;;;;;;;5.69;85.14;98923.59;1704604;84;26081;-94
2021/11/18 04:18:45;;;;;;;;;;;;;;;5.68;85.20;98927.09;1704530;84;24454;-95
2021/11/18 04:21:11;;;;;;;;;;;;;;;5.68;85.26;98927.95;1705372;84;20194;-94
2021/11/18 04:23:37;;;;;;;;;;;;;;;5.69;85.30;98927.49;1705278;84;24966;-95
2021/11/18 04:26:04;;;;;;;;;;;;;;;5.66;85.37;98925.89;1705302;84;21716;-94
2021/11/18 04:28:31;;;;;;;;;;;;;;;5.66;85.41;98934.98;1704864;84;26060;-95
2021/11/18 04:31:01;;;;;;;;;;;;;;;5.67;85.46;98931.48;1704679;83;20392;-96
2021/11/18 04:33:28;;;;;;;;;;;;;;;5.67;85.51;98935.82;1730725;82;21313;-94
2021/11/18 04:35:54;;;;;;;;;;;;;;;5.66;85.54;98941.92;1730418;82;24992;-95
2021/11/18 04:38:20;;;;;;;;;;;;;;;5.66;85.58;98936.73;1704886;84;21972;-95
2021/11/18 04:40:47;;;;;;;;;;;;;;;5.68;85.63;98936.19;1704653;84;26044;-95
2021/11/18 04:43:13;;;;;;;;;;;;;;;5.68;85.65;98932.29;1706726;82;24487;-94
2021/11/18 04:45:39;;;;;;;;;;;;;;;5.68;85.71;98938.78;1710349;84;20527;-94
2021/11/18 04:48:05;;;;;;;;;;;;;;;5.67;85.76;98930.17;1708646;84;24985;-94
2021/11/18 04:50:32;;;;;;;;;;;;;;;5.68;85.80;98934.89;1716983;83;20300;-93
2021/11/18 04:52:58;;;;;;;;;;;;;;;5.67;85.83;98947.51;1706585;82;25947;-95
2021/11/18 04:55:25;;;;;;;;;;;;;;;5.66;85.86;98953.15;1706334;82;20294;-95
2021/11/18 04:57:51;;;;;;;;;;;;;;;5.66;85.89;98951.00;1724766;83;20268;-94
2021/11/18 05:00:22;;;;;;;;;;;;;;;5.64;85.93;98954.95;1725316;83;24941;-95
2021/11/18 05:02:49;;;;;;;;;;;;;;;5.66;85.96;98960.09;1724332;82;21952;-94
2021/11/18 05:05:16;;;;;;;;;;;;;;;5.65;86.02;98959.70;1725148;83;25952;-94
2021/11/18 05:07:42;;;;;;;;;;;;;;;5.66;86.03;98960.94;1725130;83;24618;-95
2021/11/18 05:10:08;;;;;;;;;;;;;;;5.67;86.07;98973.47;1725311;83;20216;-94
2021/11/18 05:12:34;;;;;;;;;;;;;;;5.67;86.12;98968.28;1725520;83;24929;-93
2021/11/18 05:15:00;;;;;;;;;;;;;;;5.71;86.15;98975.02;1725285;83;21883;-94
2021/11/18 05:17:26;;;;;;;;;;;;;;;5.71;86.18;98973.27;1726013;83;25936;-94
2021/11/18 05:19:52;;;;;;;;;;;;;;;5.73;86.22;98977.09;1725315;83;20264;-95
2021/11/18 05:22:18;;;;;;;;;;;;;;;5.73;86.24;98977.09;1725019;83;20300;-96
2021/11/18 05:24:44;;;;;;;;;;;;;;;5.71;86.27;98975.88;1724079;83;20229;-96
2021/11/18 05:27:11;;;;;;;;;;;;;;;5.72;86.28;98980.16;1724694;83;20252;-94
2021/11/18 05:29:37;;;;;;;;;;;;;;;5.70;86.30;98972.87;1725373;83;26266;-96
2021/11/18 05:32:03;;;;;;;;;;;;;;;5.72;86.33;98978.02;1725317;83;24613;-94
2021/11/18 05:34:30;;;;;;;;;;;;;;;5.73;86.36;98977.94;1724668;83;20480;-95
2021/11/18 05:36:56;;;;;;;;;;;;;;;5.74;86.39;98985.27;1725023;83;20728;-94
2021/11/18 05:39:22;;;;;;;;;;;;;;;5.74;86.40;98984.82;1725091;83;21956;-95
2021/11/18 05:41:48;;;;;;;;;;;;;;;5.73;86.45;98991.36;1725239;83;26127;-92
2021/11/18 05:44:16;;;;;;;;;;;;;;;5.72;86.46;98982.77;1719162;82;24472;-95
2021/11/18 05:46:42;;;;;;;;;;;;;;;5.71;86.47;98982.81;1714677;83;20178;-96
2021/11/18 05:49:08;;;;;;;;;;;;;;;5.71;86.48;98981.06;1715076;83;24976;-95
2021/11/18 05:51:35;;;;;;;;;;;;;;;5.74;86.51;98977.48;1714929;83;22026;-94
2021/11/18 05:54:01;;;;;;;;;;;;;;;5.77;86.56;98989.05;1714801;83;26043;-94
2021/11/18 05:56:29;;;;;;;;;;;;;;;5.77;86.57;98986.45;1715157;83;20587;-92
2021/11/18 05:58:55;;;;;;;;;;;;;;;5.77;86.59;98988.61;1714950;83;20173;-95
2021/11/18 06:01:23;;;;;;;;;;;;;;;5.76;86.60;98993.85;1714896;83;24946;-95
2021/11/18 06:03:49;;;;;;;;;;;;;;;5.76;86.63;98999.05;1715097;83;21979;-94
2021/11/18 06:06:16;;;;;;;;;;;;;;;5.74;86.63;98994.36;1715357;83;26061;-94
2021/11/18 06:08:41;;;;;;;;;;;;;;;5.77;86.65;98992.50;1714694;83;24511;-95
2021/11/18 06:11:08;;;;;;;;;;;;;;;5.77;86.67;99001.59;1714876;83;20225;-93
2021/11/18 06:13:34;;;;;;;;;;;;;;;5.75;86.65;99009.89;1714771;83;25113;-94
2021/11/18 06:16:01;;;;;;;;;;;;;;;5.75;86.65;99001.25;1714847;83;21850;-93
2021/11/18 06:18:27;;;;;;;;;;;;;;;5.77;86.69;99007.23;1733218;81;26194;-94
2021/11/18 06:20:53;;;;;;;;;;;;;;;5.76;86.68;99008.98;1708022;82;20249;-94
2021/11/18 06:23:19;;;;;;;;;;;;;;;5.75;86.69;99012.94;1714844;83;20273;-93
2021/11/18 06:25:45;;;;;;;;;;;;;;;5.76;86.69;99012.88;1714735;83;20276;-95
2021/11/18 06:28:13;;;;;;;;;;;;;;;5.74;86.70;99012.54;1714847;83;21852;-94
2021/11/18 06:30:41;;;;;;;;;;;;;;;5.75;86.70;99019.42;1715267;83;25958;-95
2021/11/18 06:33:08;;;;;;;;;;;;;;;5.76;86.71;99023.72;1684557;83;24421;-95
2021/11/18 06:35:37;;;;;;;;;;;;;;;5.79;86.69;99031.38;1732675;82;20288;-94
2021/11/18 06:38:04;;;;;;;;;;;;;;;5.79;86.73;99032.22;1732552;80;24836;-93
2021/11/18 06:40:30;;;;;;;;;;;;;;;5.78;86.73;99034.42;1715084;83;21761;-95
2021/11/18 06:42:57;;;;;;;;;;;;;;;5.79;86.73;99030.07;1715168;83;25974;-94
2021/11/18 06:45:25;;;;;;;;;;;;;;;5.79;86.73;99037.86;1751606;81;24418;-94
2021/11/18 06:50:48;;;;;;;;;;;;;;;5.77;86.69;99033.20;1725089;83;21063;-94
2021/11/18 06:53:14;;;;;;;;;;;;;;;5.74;86.65;99038.05;1725216;83;22065;-95
2021/11/18 06:55:41;;;;;;;;;;;;;;;5.70;86.64;99044.29;1726641;83;26226;-95
2021/11/18 06:58:07;;;;;;;;;;;;;;;5.69;86.61;99046.48;1766115;80;24836;-96
2021/11/18 07:00:33;;;;;;;;;;;;;;;5.69;86.59;99046.94;1726914;83;20215;-94
2021/11/18 07:03:00;;;;;;;;;;;;;;;5.68;86.56;99045.24;1726574;82;25756;-96
2021/11/18 07:05:26;;;;;;;;;;;;;;;5.65;86.56;99042.33;1726983;83;22000;-94
2021/11/18 07:07:52;;;;;;;;;;;;;;;5.67;86.55;99050.07;1726679;83;26012;-94
2021/11/18 07:10:18;;;;;;;;;;;;;;;5.69;86.53;99049.09;1726814;83;24416;-94
2021/11/18 07:12:44;;;;;;;;;;;;;;;5.74;86.55;99051.48;1727141;82;20249;-93
2021/11/18 07:15:12;;;;;;;;;;;;;;;5.79;86.59;99050.39;1726710;83;25117;-94
2021/11/18 07:17:39;;;;;;;;;;;;;;;5.83;86.61;99045.95;1726817;82;22064;-94
2021/11/18 07:20:05;;;;;;;;;;;;;;;5.86;86.64;99046.65;1726694;82;26157;-92
2021/11/18 07:22:31;;;;;;;;;;;;;;;5.90;86.66;99046.09;1726871;83;24437;-95
2021/11/18 07:24:58;;;;;;;;;;;;;;;5.91;86.67;99051.69;1726676;83;20241;-96
2021/11/18 07:27:24;;;;;;;;;;;;;;;5.94;86.68;99048.98;1766346;81;25087;-95
2021/11/18 07:29:51;;;;;;;;;;;;;;;5.97;86.69;99052.73;1726983;82;22201;-93
2021/11/18 07:32:17;;;;;;;;;;;;;;;6.01;86.69;99052.14;1726895;83;25921;-96
2021/11/18 07:34:43;;;;;;;;;;;;;;;6.03;86.70;99053.78;1726860;83;24645;-92
2021/11/18 07:37:09;;;;;;;;;;;;;;;6.07;86.70;99058.39;1766630;80;20812;-96
2021/11/18 07:39:35;;;;;;;;;;;;;;;6.12;86.71;99063.78;1727104;83;25032;-95
2021/11/18 07:42:01;;;;;;;;;;;;;;;6.19;86.73;99061.33;1727634;83;22032;-94
2021/11/18 07:44:27;;;;;;;;;;;;;;;6.26;86.74;99054.13;1720444;82;21023;-94
2021/11/18 07:46:53;;;;;;;;;;;;;;;6.28;86.77;99058.33;1749805;81;24644;-92
2021/11/18 07:49:19;;;;;;;;;;;;;;;6.35;86.77;99059.38;1741125;82;20314;-96
2021/11/18 07:51:45;;;;;;;;;;;;;;;6.37;86.78;99057.11;1741290;82;24995;-95
2021/11/18 07:54:15;;;;;;;;;;;;;;;6.41;86.76;99059.11;1719528;82;20212;-96
2021/11/18 07:56:41;;;;;;;;;;;;;;;6.40;86.75;99059.56;1741421;82;25972;-95
2021/11/18 07:59:08;;;;;;;;;;;;;;;6.43;86.73;99059.45;1741400;82;24475;-96
2021/11/18 08:01:34;;;;;;;;;;;;;;;6.39;86.69;99056.56;1741336;82;20191;-95
2021/11/18 08:04:00;;;;;;;;;;;;;;;6.46;86.67;99063.66;1741398;82;25081;-94
2021/11/18 08:06:27;;;;;;;;;;;;;;;6.44;86.60;99057.66;1741219;82;22216;-94
2021/11/18 08:08:55;;;;;;;;;;;;;;;6.46;86.57;99058.45;1741449;82;25804;-94
2021/11/18 08:11:23;;;;;;;;;;;;;;;6.49;86.54;99061.76;1741183;82;24506;-94
2021/11/18 08:13:50;;;;;;;;;;;;;;;6.53;86.52;99060.73;1741224;82;20540;-93
2021/11/18 08:16:16;;;;;;;;;;;;;;;6.55;86.49;99058.89;1741184;82;24973;-95
2021/11/18 08:18:42;;;;;;;;;;;;;;;6.61;86.49;99067.73;1741382;82;21988;-95
2021/11/18 08:21:09;;;;;;;;;;;;;;;6.64;86.44;99071.52;1741345;82;25913;-93
2021/11/18 08:23:35;;;;;;;;;;;;;;;6.66;86.42;99072.27;1741140;82;24449;-95
2021/11/18 08:26:02;;;;;;;;;;;;;;;6.63;86.34;99071.13;1741280;82;20188;-94
2021/11/18 08:28:29;;;;;;;;;;;;;;;6.67;86.31;99074.42;1741123;82;24949;-94
2021/11/18 08:30:55;;;;;;;;;;;;;;;6.69;86.25;99081.26;1694953;82;22132;-96
2021/11/18 08:33:21;;;;;;;;;;;;;;;6.72;86.24;99085.47;1741282;82;25941;-94
2021/11/18 08:35:49;;;;;;;;;;;;;;;6.77;86.21;99086.10;1740845;82;24738;-94
2021/11/18 08:38:17;;;;;;;;;;;;;;;6.80;86.18;99089.89;1741483;82;20287;-94
2021/11/18 08:40:45;;;;;;;;;;;;;;;6.85;86.13;99097.03;1741265;82;24971;-95
2021/11/18 08:43:11;;;;;;;;;;;;;;;6.87;86.10;99100.42;1741364;82;22066;-93
2021/11/18 08:45:37;;;;;;;;;;;;;;;6.87;86.07;99106.08;1742984;81;26699;-96
2021/11/18 08:48:08;;;;;;;;;;;;;;;6.83;85.99;99118.36;1743431;82;24463;-95
2021/11/18 08:50:35;;;;;;;;;;;;;;;6.80;85.92;99116.36;1743451;82;20144;-96
2021/11/18 08:53:01;;;;;;;;;;;;;;;6.75;85.82;99108.76;1722813;82;25322;-96
2021/11/18 08:55:29;;;;;;;;;;;;;;;6.73;85.75;99117.92;1743547;82;20297;-94
2021/11/18 08:57:55;;;;;;;;;;;;;;;6.71;85.72;99126.69;1743547;82;25944;-95
2021/11/18 09:00:23;;;;;;;;;;;;;;;6.70;85.69;99118.06;1743700;82;24435;-95
2021/11/18 09:02:50;;;;;;;;;;;;;;;6.72;85.68;99119.28;1743506;82;20207;-95
2021/11/18 09:05:16;;;;;;;;;;;;;;;6.73;85.67;99119.67;1743765;82;25050;-96
2021/11/18 09:11:06;;;;;;;;;;;;;;;6.81;85.71;99120.20;1743274;82;22158;-94
2021/11/18 09:13:32;;;;;;;;;;;;;;;6.90;85.75;99124.14;1743167;82;24425;-94
2021/11/18 09:15:58;;;;;;;;;;;;;;;6.93;85.77;99124.84;1743467;82;20317;-95
2021/11/18 09:21:59;;;;;;;;;;;;;;;7.00;85.75;99130.17;1743294;82;20171;-95
2021/11/18 09:24:27;;;;;;;;;;;;;;;7.11;85.74;99122.73;1743268;82;26140;-95
2021/11/18 09:26:55;;;;;;;;;;;;;;;7.22;85.75;99131.81;1743340;82;24590;-96
2021/11/18 09:29:22;;;;;;;;;;;;;;;7.28;85.77;99126.34;1742949;82;20260;-95
2021/11/18 09:31:48;;;;;;;;;;;;;;;7.32;85.75;99124.82;1743309;82;24960;-96
2021/11/18 09:34:15;;;;;;;;;;;;;;;7.34;85.67;99128.66;1743317;82;21792;-95
2021/11/18 09:36:42;;;;;;;;;;;;;;;7.33;85.61;99132.17;1721277;82;26028;-96
2021/11/18 09:39:09;;;;;;;;;;;;;;;7.33;85.53;99145.19;1743379;82;24616;-95
2021/11/18 09:41:39;;;;;;;;;;;;;;;7.31;85.43;99143.13;1743656;82;20148;-95
2021/11/18 09:47:37;;;;;;;;;;;;;;;7.23;85.23;99147.37;1741818;81;20226;-95
2021/11/18 09:50:22;;;;;;;;;;;;;;;7.19;85.08;99152.79;1743559;82;25920;-96
2021/11/18 09:53:02;;;;;;;;;;;;;;;7.16;84.96;99156.36;1744016;82;24644;-95
2021/11/18 09:55:30;;;;;;;;;;;;;;;7.17;84.91;99159.36;1781144;80;20468;-95
2021/11/18 09:58:07;;;;;;;;;;;;;;;7.19;84.84;99155.39;1780085;80;25041;-96
2021/11/18 10:03:56;;;;;;;;;;;;;;;7.30;84.78;99154.00;1780759;80;22086;-96
2021/11/18 10:06:30;;;;;;;;;;;;;;;7.40;84.80;99151.37;1779644;80;24553;-96
2021/11/18 10:09:07;;;;;;;;;;;;;;;7.43;84.81;99152.52;1780752;80;20231;-96
2021/11/18 10:11:37;;;;;;;;;;;;;;;7.43;84.79;99149.91;1779941;80;25123;-96
2021/11/18 10:14:05;;;;;;;;;;;;;;;7.47;84.79;99158.45;1778647;80;21734;-94
2021/11/18 10:16:33;;;;;;;;;;;;;;;7.48;84.78;99151.00;1780696;80;25980;-96
2021/11/18 10:19:00;;;;;;;;;;;;;;;7.48;84.75;99146.63;1779761;80;24413;-96
2021/11/18 10:21:31;;;;;;;;;;;;;;;7.45;84.70;99144.64;1780208;80;20725;-95
2021/11/18 10:24:00;;;;;;;;;;;;;;;7.45;84.65;99140.73;1780537;80;24944;-96
2021/11/18 10:26:28;;;;;;;;;;;;;;;7.45;84.60;99128.56;1756708;80;21980;-95
2021/11/18 10:29:02;;;;;;;;;;;;;;;7.43;84.53;99121.72;1735050;82;25985;-95
2021/11/18 10:31:39;;;;;;;;;;;;;;;7.43;84.44;99117.81;1735469;82;24503;-96
2021/11/18 10:34:13;;;;;;;;;;;;;;;7.44;84.37;99106.03;1739564;81;20500;-96
2021/11/18 10:36:57;;;;;;;;;;;;;;;7.44;84.30;99106.03;1769214;81;25046;-96
2021/11/18 10:39:28;;;;;;;;;;;;;;;7.45;84.22;99114.23;1769132;81;21775;-96
2021/11/18 10:41:59;;;;;;;;;;;;;;;7.48;84.15;99115.84;1768874;81;25986;-95
2021/11/18 10:44:27;;;;;;;;;;;;;;;7.52;84.12;99110.44;1767878;81;24508;-96
2021/11/18 10:46:58;;;;;;;;;;;;;;;7.51;84.08;99125.67;1769620;81;20247;-94
2021/11/18 10:49:32;;;;;;;;;;;;;;;7.49;84.04;99131.86;1772320;79;25014;-96
2021/11/18 10:52:00;;;;;;;;;;;;;;;7.44;83.95;99119.05;1767858;81;22078;-96
2021/11/18 10:57:36;;;;;;;;;;;;;;;7.41;83.72;99115.30;1764737;81;20542;-94
2021/11/18 11:00:13;;;;;;;;;;;;;;;7.37;83.62;99111.13;1764782;81;20220;-94
2021/11/18 11:02:39;;;;;;;;;;;;;;;7.36;83.52;99116.43;1763699;81;24942;-95
2021/11/18 11:05:24;;;;;;;;;;;;;;;7.32;83.44;99111.80;1764653;81;21732;-95
2021/11/18 11:07:51;;;;;;;;;;;;;;;7.29;83.37;99105.45;1764776;81;25952;-96
2021/11/18 11:10:19;;;;;;;;;;;;;;;7.25;83.29;99093.49;1764942;81;24521;-95
2021/11/18 11:12:47;;;;;;;;;;;;;;;7.27;83.25;99096.00;1765110;81;20233;-94
2021/11/18 11:15:24;;;;;;;;;;;;;;;7.28;83.26;99097.70;1763705;81;24945;-95
2021/11/18 11:18:09;;;;;;;;;;;;;;;7.28;83.24;99095.94;1764969;81;22072;-96
2021/11/18 11:20:43;;;;;;;;;;;;;;;7.31;83.24;99095.78;1764798;81;25977;-96
2021/11/18 11:23:19;;;;;;;;;;;;;;;7.30;83.25;99098.48;1764672;81;24499;-96
2021/11/18 11:26:04;;;;;;;;;;;;;;;7.28;83.24;99101.60;1764970;81;20437;-95
2021/11/18 11:28:32;;;;;;;;;;;;;;;7.27;83.19;99107.72;1764702;81;25046;-95
2021/11/18 11:31:07;;;;;;;;;;;;;;;7.26;83.15;99095.16;1741551;81;20224;-95
2021/11/18 11:33:38;;;;;;;;;;;;;;;7.28;83.13;99089.89;1753287;81;25980;-96
2021/11/18 11:36:09;;;;;;;;;;;;;;;7.31;83.15;99087.16;1741664;82;24453;-95
2021/11/18 11:38:45;;;;;;;;;;;;;;;7.35;83.14;99083.49;1741891;82;20151;-96
2021/11/18 11:41:19;;;;;;;;;;;;;;;7.39;83.14;99071.55;1741350;81;24968;-94
2021/11/18 11:43:50;;;;;;;;;;;;;;;7.46;83.20;99073.42;1742457;82;21959;-96
2021/11/18 11:46:21;;;;;;;;;;;;;;;7.50;83.19;99071.89;1742095;81;26061;-95
2021/11/18 11:48:51;;;;;;;;;;;;;;;7.53;83.21;99066.98;1741517;82;24470;-95
2021/11/18 11:51:27;;;;;;;;;;;;;;;7.57;83.22;99059.44;1742527;82;20168;-95
2021/11/18 11:54:11;;;;;;;;;;;;;;;7.60;83.17;99049.31;1718513;82;26847;-96
2021/11/18 11:56:42;;;;;;;;;;;;;;;7.63;83.17;99053.94;1742327;82;22071;-96
2021/11/18 12:02:44;;;;;;;;;;;;;;;7.67;83.04;99070.25;1742132;82;20570;-94
2021/11/18 12:05:12;;;;;;;;;;;;;;;7.71;82.97;99071.33;1742267;82;20281;-94
2021/11/18 12:07:53;;;;;;;;;;;;;;;7.76;82.95;99069.34;1742462;82;24939;-94
2021/11/18 12:10:35;;;;;;;;;;;;;;;7.76;82.86;99063.28;1741901;82;21922;-96
2021/11/18 12:13:17;;;;;;;;;;;;;;;7.78;82.77;99066.22;1719553;83;25989;-96
2021/11/18 12:15:51;;;;;;;;;;;;;;;7.83;82.69;99080.31;1659034;85;24511;-95
2021/11/18 12:18:19;;;;;;;;;;;;;;;7.88;82.64;99077.88;1686925;85;20198;-94
2021/11/18 12:20:45;;;;;;;;;;;;;;;7.93;82.59;99088.92;1659311;86;24985;-96
2021/11/18 12:23:13;;;;;;;;;;;;;;;7.93;82.51;99081.09;1685484;85;21905;-95
2021/11/18 12:25:47;;;;;;;;;;;;;;;7.96;82.39;99087.94;1687324;85;26008;-95
2021/11/18 12:28:19;;;;;;;;;;;;;;;7.96;82.32;99089.23;1686233;85;24621;-95
2021/11/18 12:30:49;;;;;;;;;;;;;;;7.98;82.20;99077.80;1686571;85;20174;-95
2021/11/18 12:33:20;;;;;;;;;;;;;;;8.01;82.11;99072.07;1686273;85;25011;-96
2021/11/18 12:36:05;;;;;;;;;;;;;;;8.01;81.99;99072.07;1686945;85;22002;-95
2021/11/18 12:38:37;;;;;;;;;;;;;;;7.99;81.88;99083.41;1687614;85;26070;-95
2021/11/18 12:41:20;;;;;;;;;;;;;;;7.94;81.72;99089.31;1661126;84;24432;-95
2021/11/18 12:44:03;;;;;;;;;;;;;;;7.92;81.56;99088.98;1712566;83;20198;-96
2021/11/18 12:46:34;;;;;;;;;;;;;;;7.86;81.39;99090.12;1685791;84;24967;-96
2021/11/18 12:49:09;;;;;;;;;;;;;;;7.86;81.25;99090.12;1689822;83;22065;-96
2021/11/18 12:51:43;;;;;;;;;;;;;;;7.87;81.13;99089.21;1686523;85;25998;-95
2021/11/18 12:54:17;;;;;;;;;;;;;;;7.84;80.99;99084.16;1686555;85;24463;-95
2021/11/18 12:57:03;;;;;;;;;;;;;;;7.86;80.91;99080.16;1686582;84;20162;-95
2021/11/18 12:59:44;;;;;;;;;;;;;;;7.87;80.81;99083.16;1714545;83;25191;-95
2021/11/18 13:02:12;;;;;;;;;;;;;;;7.83;80.69;99060.78;1711301;83;21779;-96
2021/11/18 13:04:39;;;;;;;;;;;;;;;7.86;80.59;99060.61;1704257;83;25909;-95
2021/11/18 13:07:07;;;;;;;;;;;;;;;7.85;80.52;99044.62;1689730;83;24482;-96
2021/11/18 13:09:51;;;;;;;;;;;;;;;7.86;80.45;99050.19;1712025;83;20319;-96
2021/11/18 13:12:27;;;;;;;;;;;;;;;7.84;80.39;99051.59;1685110;85;24805;-96
2021/11/18 13:14:55;;;;;;;;;;;;;;;7.83;80.30;99049.89;1686196;85;21842;-96
2021/11/18 13:17:32;;;;;;;;;;;;;;;7.82;80.23;99049.97;1657963;85;27200;-96
2021/11/18 13:20:06;;;;;;;;;;;;;;;7.78;80.17;99045.38;1682463;85;24424;-93
2021/11/18 13:22:40;;;;;;;;;;;;;;;7.76;80.10;99045.05;1654291;86;20193;-95
2021/11/18 13:25:07;;;;;;;;;;;;;;;7.73;80.03;99044.75;1686396;85;24979;-93
2021/11/18 13:27:47;;;;;;;;;;;;;;;7.69;79.93;99051.01;1686833;85;22251;-96
2021/11/18 13:33:37;;;;;;;;;;;;;;;7.67;79.76;99059.83;1707647;84;22385;-95
2021/11/18 13:36:05;;;;;;;;;;;;;;;7.68;79.66;99060.22;1709254;83;20226;-94
2021/11/18 13:38:32;;;;;;;;;;;;;;;7.70;79.60;99062.27;1754160;81;24949;-96